sensor_id;sensor_type;location;lat;lon;timestamp;pressure;altitude;pressure_sealevel;temperature
77223;BMP280;66218;48.928;9.140;2023-04-25T00:01:30;97921.97;;;9.49
77223;BMP280;66218;48.928;9.140;2023-04-25T00:03:57;97905.28;;;9.43
77223;BMP280;66218;48.928;9.140;2023-04-25T00:06:22;97912.28;;;9.48
77223;BMP280;66218;48.928;9.140;2023-04-25T00:08:52;97908.13;;;9.47
77223;BMP280;66218;48.928;9.140;2023-04-25T00:11:17;97908.13;;;9.47
77223;BMP280;66218;48.928;9.140;2023-04-25T00:13:42;97903.91;;;9.42
77223;BMP280;66218;48.928;9.140;2023-04-25T00:16:07;97899.88;;;9.47
77223;BMP280;66218;48.928;9.140;2023-04-25T00:18:33;97899.88;;;9.47
77223;BMP280;66218;48.928;9.140;2023-04-25T00:20:58;97895.56;;;9.40
77223;BMP280;66218;48.928;9.140;2023-04-25T00:23:23;97894.94;;;9.41
77223;BMP280;66218;48.928;9.140;2023-04-25T00:25:49;97896.81;;;9.35
77223;BMP280;66218;48.928;9.140;2023-04-25T00:28:15;97890.69;;;9.36
77223;BMP280;66218;48.928;9.140;2023-04-25T00:30:42;97891.31;;;9.35
77223;BMP280;66218;48.928;9.140;2023-04-25T00:33:07;97901.81;;;9.40
77223;BMP280;66218;48.928;9.140;2023-04-25T00:35:33;97901.81;;;9.40
77223;BMP280;66218;48.928;9.140;2023-04-25T00:37:59;97902.31;;;9.33
77223;BMP280;66218;48.928;9.140;2023-04-25T00:40:24;97897.38;;;9.29
77223;BMP280;66218;48.928;9.140;2023-04-25T00:42:51;97902.81;;;9.27
77223;BMP280;66218;48.928;9.140;2023-04-25T00:45:17;97904.16;;;9.24
77223;BMP280;66218;48.928;9.140;2023-04-25T00:47:43;97903.38;;;9.21
77223;BMP280;66218;48.928;9.140;2023-04-25T00:50:09;97899.28;;;9.22
77223;BMP280;66218;48.928;9.140;2023-04-25T00:52:35;97895.13;;;9.21
77223;BMP280;66218;48.928;9.140;2023-04-25T00:55:00;97890.41;;;9.26
77223;BMP280;66218;48.928;9.140;2023-04-25T00:57:26;97890.41;;;9.26
77223;BMP280;66218;48.928;9.140;2023-04-25T00:59:52;97889.16;;;9.31
77223;BMP280;66218;48.928;9.140;2023-04-25T01:02:18;97889.16;;;9.31
77223;BMP280;66218;48.928;9.140;2023-04-25T01:04:44;97870.44;;;9.25
77223;BMP280;66218;48.928;9.140;2023-04-25T01:07:10;97871.84;;;9.26
77223;BMP280;66218;48.928;9.140;2023-04-25T01:09:35;97857.38;;;9.26
77223;BMP280;66218;48.928;9.140;2023-04-25T01:12:01;97873.31;;;9.29
77223;BMP280;66218;48.928;9.140;2023-04-25T01:14:26;97861.53;;;9.27
77223;BMP280;66218;48.928;9.140;2023-04-25T01:16:52;97861.53;;;9.27
77223;BMP280;66218;48.928;9.140;2023-04-25T01:19:18;97860.06;;;9.22
77223;BMP280;66218;48.928;9.140;2023-04-25T01:21:44;97870.44;;;9.23
77223;BMP280;66218;48.928;9.140;2023-04-25T01:24:10;97866.28;;;9.24
77223;BMP280;66218;48.928;9.140;2023-04-25T01:26:35;97872.50;;;9.25
77223;BMP280;66218;48.928;9.140;2023-04-25T01:29:01;97869.09;;;9.26
77223;BMP280;66218;48.928;9.140;2023-04-25T01:31:27;97866.94;;;9.23
77223;BMP280;66218;48.928;9.140;2023-04-25T01:33:53;97864.81;;;9.19
77223;BMP280;66218;48.928;9.140;2023-04-25T01:36:18;97859.31;;;9.19
77223;BMP280;66218;48.928;9.140;2023-04-25T01:38:44;97864.75;;;9.17
77223;BMP280;66218;48.928;9.140;2023-04-25T01:41:11;97870.16;;;9.13
77223;BMP280;66218;48.928;9.140;2023-04-25T01:43:36;97858.47;;;9.13
77223;BMP280;66218;48.928;9.140;2023-04-25T01:46:02;97863.16;;;9.08
77223;BMP280;66218;48.928;9.140;2023-04-25T01:48:27;97857.00;;;9.10
77223;BMP280;66218;48.928;9.140;2023-04-25T01:50:52;97859.75;;;9.10
77223;BMP280;66218;48.928;9.140;2023-04-25T01:53:18;97863.84;;;9.09
77223;BMP280;66218;48.928;9.140;2023-04-25T01:55:43;97877.78;;;9.15
77223;BMP280;66218;48.928;9.140;2023-04-25T01:58:08;97878.47;;;9.15
77223;BMP280;66218;48.928;9.140;2023-04-25T02:00:36;97878.47;;;9.15
77223;BMP280;66218;48.928;9.140;2023-04-25T02:03:04;97868.81;;;9.14
77223;BMP280;66218;48.928;9.140;2023-04-25T02:05:36;97862.69;;;9.18
77223;BMP280;66218;48.928;9.140;2023-04-25T02:08:02;97855.94;;;9.23
77223;BMP280;66218;48.928;9.140;2023-04-25T02:10:28;97861.44;;;9.23
77223;BMP280;66218;48.928;9.140;2023-04-25T02:12:53;97855.28;;;9.24
77223;BMP280;66218;48.928;9.140;2023-04-25T02:15:19;97856.66;;;9.23
77223;BMP280;66218;48.928;9.140;2023-04-25T02:17:44;97858.00;;;9.22
77223;BMP280;66218;48.928;9.140;2023-04-25T02:20:10;97860.72;;;9.20
77223;BMP280;66218;48.928;9.140;2023-04-25T02:22:36;97851.59;;;9.14
77223;BMP280;66218;48.928;9.140;2023-04-25T02:25:02;97855.66;;;9.11
77223;BMP280;66218;48.928;9.140;2023-04-25T02:27:30;97848.84;;;9.14
77223;BMP280;66218;48.928;9.140;2023-04-25T02:29:55;97848.84;;;9.14
77223;BMP280;66218;48.928;9.140;2023-04-25T02:32:20;97853.09;;;9.19
77223;BMP280;66218;48.928;9.140;2023-04-25T02:34:46;97849.78;;;9.24
77223;BMP280;66218;48.928;9.140;2023-04-25T02:37:11;97849.25;;;9.30
77223;BMP280;66218;48.928;9.140;2023-04-25T02:39:36;97839.69;;;9.33
77223;BMP280;66218;48.928;9.140;2023-04-25T02:42:02;97845.28;;;9.37
77223;BMP280;66218;48.928;9.140;2023-04-25T02:44:27;97848.84;;;9.42
77223;BMP280;66218;48.928;9.140;2023-04-25T02:46:53;97844.81;;;9.47
77223;BMP280;66218;48.928;9.140;2023-04-25T02:49:18;97851.13;;;9.51
77223;BMP280;66218;48.928;9.140;2023-04-25T02:51:43;97847.66;;;9.51
77223;BMP280;66218;48.928;9.140;2023-04-25T02:54:09;97846.44;;;9.58
77223;BMP280;66218;48.928;9.140;2023-04-25T02:56:34;97846.44;;;9.58
77223;BMP280;66218;48.928;9.140;2023-04-25T02:58:59;97847.22;;;9.63
77223;BMP280;66218;48.928;9.140;2023-04-25T03:01:24;97847.22;;;9.63
77223;BMP280;66218;48.928;9.140;2023-04-25T03:03:50;97833.31;;;9.56
77223;BMP280;66218;48.928;9.140;2023-04-25T03:06:15;97831.88;;;9.53
77223;BMP280;66218;48.928;9.140;2023-04-25T03:08:41;97836.66;;;9.53
77223;BMP280;66218;48.928;9.140;2023-04-25T03:11:06;97838.72;;;9.50
77223;BMP280;66218;48.928;9.140;2023-04-25T03:13:31;97830.28;;;9.44
77223;BMP280;66218;48.928;9.140;2023-04-25T03:15:57;97831.50;;;9.37
77223;BMP280;66218;48.928;9.140;2023-04-25T03:18:22;97839.00;;;9.33
77223;BMP280;66218;48.928;9.140;2023-04-25T03:20:47;97823.00;;;9.27
77223;BMP280;66218;48.928;9.140;2023-04-25T03:23:14;97824.94;;;9.20
77223;BMP280;66218;48.928;9.140;2023-04-25T03:25:39;97831.91;;;9.23
77223;BMP280;66218;48.928;9.140;2023-04-25T03:28:04;97831.44;;;9.33
77223;BMP280;66218;48.928;9.140;2023-04-25T03:30:30;97834.31;;;9.39
77223;BMP280;66218;48.928;9.140;2023-04-25T03:32:55;97833.91;;;9.51
77223;BMP280;66218;48.928;9.140;2023-04-25T03:35:20;97833.91;;;9.51
77223;BMP280;66218;48.928;9.140;2023-04-25T03:37:46;97842.34;;;9.59
77223;BMP280;66218;48.928;9.140;2023-04-25T03:40:11;97842.34;;;9.59
77223;BMP280;66218;48.928;9.140;2023-04-25T03:42:36;97834.00;;;9.57
77223;BMP280;66218;48.928;9.140;2023-04-25T03:45:02;97832.69;;;9.58
77223;BMP280;66218;48.928;9.140;2023-04-25T03:47:28;97828.66;;;9.63
77223;BMP280;66218;48.928;9.140;2023-04-25T03:49:53;97823.75;;;9.60
77223;BMP280;66218;48.928;9.140;2023-04-25T03:52:18;97826.47;;;9.57
77223;BMP280;66218;48.928;9.140;2023-04-25T03:54:43;97835.56;;;9.64
77223;BMP280;66218;48.928;9.140;2023-04-25T03:57:09;97835.56;;;9.64
77223;BMP280;66218;48.928;9.140;2023-04-25T03:59:35;97836.94;;;9.65
77223;BMP280;66218;48.928;9.140;2023-04-25T04:02:01;97836.94;;;9.65
77223;BMP280;66218;48.928;9.140;2023-04-25T04:04:26;97828.78;;;9.69
77223;BMP280;66218;48.928;9.140;2023-04-25T04:06:51;97830.16;;;9.68
77223;BMP280;66218;48.928;9.140;2023-04-25T04:09:17;97828.06;;;9.67
77223;BMP280;66218;48.928;9.140;2023-04-25T04:11:43;97830.53;;;9.54
77223;BMP280;66218;48.928;9.140;2023-04-25T04:14:08;97836.53;;;9.47
77223;BMP280;66218;48.928;9.140;2023-04-25T04:16:35;97833.59;;;9.39
77223;BMP280;66218;48.928;9.140;2023-04-25T04:19:00;97832.13;;;9.34
77223;BMP280;66218;48.928;9.140;2023-04-25T04:21:26;97832.13;;;9.34
77223;BMP280;66218;48.928;9.140;2023-04-25T04:23:52;97829.16;;;9.23
77223;BMP280;66218;48.928;9.140;2023-04-25T04:26:17;97828.88;;;9.13
77223;BMP280;66218;48.928;9.140;2023-04-25T04:28:43;97830.81;;;9.09
77223;BMP280;66218;48.928;9.140;2023-04-25T04:31:11;97838.25;;;9.02
77223;BMP280;66218;48.928;9.140;2023-04-25T04:33:36;97843.78;;;9.04
77223;BMP280;66218;48.928;9.140;2023-04-25T04:36:03;97835.09;;;9.14
77223;BMP280;66218;48.928;9.140;2023-04-25T04:38:29;97837.84;;;9.14
77223;BMP280;66218;48.928;9.140;2023-04-25T04:40:54;97844.22;;;9.22
77223;BMP280;66218;48.928;9.140;2023-04-25T04:43:21;97847.06;;;9.26
77223;BMP280;66218;48.928;9.140;2023-04-25T04:45:48;97863.38;;;9.46
77223;BMP280;66218;48.928;9.140;2023-04-25T04:48:15;97863.78;;;9.65
77223;BMP280;66218;48.928;9.140;2023-04-25T04:50:42;97863.78;;;9.65
77223;BMP280;66218;48.928;9.140;2023-04-25T04:53:10;97864.13;;;9.79
77223;BMP280;66218;48.928;9.140;2023-04-25T04:55:35;97862.09;;;9.79
77223;BMP280;66218;48.928;9.140;2023-04-25T04:58:01;97871.03;;;9.80
77223;BMP280;66218;48.928;9.140;2023-04-25T05:00:26;97874.44;;;9.78
77223;BMP280;66218;48.928;9.140;2023-04-25T05:02:52;97876.56;;;9.82
77223;BMP280;66218;48.928;9.140;2023-04-25T05:05:17;97878.81;;;9.90
77223;BMP280;66218;48.928;9.140;2023-04-25T05:07:42;97885.13;;;9.94
77223;BMP280;66218;48.928;9.140;2023-04-25T05:10:08;97883.13;;;9.99
77223;BMP280;66218;48.928;9.140;2023-04-25T05:12:33;97889.16;;;9.91
77223;BMP280;66218;48.928;9.140;2023-04-25T05:14:59;97885.88;;;9.99
77223;BMP280;66218;48.928;9.140;2023-04-25T05:17:24;97890.84;;;10.04
77223;BMP280;66218;48.928;9.140;2023-04-25T05:19:49;97885.88;;;9.99
77223;BMP280;66218;48.928;9.140;2023-04-25T05:22:15;97890.03;;;10.00
77223;BMP280;66218;48.928;9.140;2023-04-25T05:24:40;97881.47;;;10.18
77223;BMP280;66218;48.928;9.140;2023-04-25T05:27:05;97886.69;;;10.37
77223;BMP280;66218;48.928;9.140;2023-04-25T05:29:31;97892.38;;;10.46
77223;BMP280;66218;48.928;9.140;2023-04-25T05:31:56;97892.88;;;10.72
77223;BMP280;66218;48.928;9.140;2023-04-25T05:34:21;97891.84;;;10.53
77223;BMP280;66218;48.928;9.140;2023-04-25T05:36:47;97885.59;;;10.89
77223;BMP280;66218;48.928;9.140;2023-04-25T05:39:15;97893.69;;;10.79
77223;BMP280;66218;48.928;9.140;2023-04-25T05:41:41;97896.63;;;10.89
77223;BMP280;66218;48.928;9.140;2023-04-25T05:44:07;97887.28;;;10.68
77223;BMP280;66218;48.928;9.140;2023-04-25T05:46:32;97899.75;;;10.73
77223;BMP280;66218;48.928;9.140;2023-04-25T05:48:57;97892.72;;;10.64
77223;BMP280;66218;48.928;9.140;2023-04-25T05:51:23;97883.91;;;10.71
77223;BMP280;66218;48.928;9.140;2023-04-25T05:53:48;97891.94;;;10.97
77223;BMP280;66218;48.928;9.140;2023-04-25T05:56:13;97903.19;;;11.10
77223;BMP280;66218;48.928;9.140;2023-04-25T05:58:39;97892.00;;;11.44
77223;BMP280;66218;48.928;9.140;2023-04-25T06:01:04;97896.69;;;11.79
77223;BMP280;66218;48.928;9.140;2023-04-25T06:03:29;97901.38;;;12.23
77223;BMP280;66218;48.928;9.140;2023-04-25T06:05:55;97896.25;;;12.60
77223;BMP280;66218;48.928;9.140;2023-04-25T06:08:20;97898.50;;;12.75
77223;BMP280;66218;48.928;9.140;2023-04-25T06:10:46;97908.38;;;12.97
77223;BMP280;66218;48.928;9.140;2023-04-25T06:13:11;97911.38;;;13.19
77223;BMP280;66218;48.928;9.140;2023-04-25T06:15:36;97919.03;;;13.25
77223;BMP280;66218;48.928;9.140;2023-04-25T06:18:02;97911.56;;;13.46
77223;BMP280;66218;48.928;9.140;2023-04-25T06:20:27;97903.47;;;13.80
77223;BMP280;66218;48.928;9.140;2023-04-25T06:22:52;97901.53;;;14.11
77223;BMP280;66218;48.928;9.140;2023-04-25T06:25:18;97905.72;;;14.18
77223;BMP280;66218;48.928;9.140;2023-04-25T06:27:44;97906.53;;;14.45
77223;BMP280;66218;48.928;9.140;2023-04-25T06:30:09;97904.41;;;14.46
77223;BMP280;66218;48.928;9.140;2023-04-25T06:32:37;97907.25;;;14.95
77223;BMP280;66218;48.928;9.140;2023-04-25T06:35:02;97904.50;;;15.37
77223;BMP280;66218;48.928;9.140;2023-04-25T06:37:28;97899.63;;;14.85
77223;BMP280;66218;48.928;9.140;2023-04-25T06:39:53;97901.03;;;14.84
77223;BMP280;66218;48.928;9.140;2023-04-25T06:42:18;97910.66;;;15.68
77223;BMP280;66218;48.928;9.140;2023-04-25T06:44:44;97903.78;;;15.39
77223;BMP280;66218;48.928;9.140;2023-04-25T06:47:09;97909.31;;;15.61
77223;BMP280;66218;48.928;9.140;2023-04-25T06:49:34;97914.84;;;15.63
77223;BMP280;66218;48.928;9.140;2023-04-25T06:52:00;97903.81;;;15.04
77223;BMP280;66218;48.928;9.140;2023-04-25T06:54:25;97900.94;;;14.41
77223;BMP280;66218;48.928;9.140;2023-04-25T06:56:52;97901.66;;;14.60
77223;BMP280;66218;48.928;9.140;2023-04-25T06:59:18;97909.34;;;14.78
77223;BMP280;66218;48.928;9.140;2023-04-25T07:01:43;97911.44;;;14.86
77223;BMP280;66218;48.928;9.140;2023-04-25T07:04:08;97909.31;;;14.49
77223;BMP280;66218;48.928;9.140;2023-04-25T07:06:34;97907.84;;;14.30
77223;BMP280;66218;48.928;9.140;2023-04-25T07:08:59;97908.41;;;14.04
77223;BMP280;66218;48.928;9.140;2023-04-25T07:11:24;97907.53;;;13.65
77223;BMP280;66218;48.928;9.140;2023-04-25T07:13:50;97908.19;;;13.59
77223;BMP280;66218;48.928;9.140;2023-04-25T07:16:16;97904.63;;;13.45
77223;BMP280;66218;48.928;9.140;2023-04-25T07:18:41;97907.84;;;13.11
77223;BMP280;66218;48.928;9.140;2023-04-25T07:21:06;97904.84;;;12.86
77223;BMP280;66218;48.928;9.140;2023-04-25T07:23:32;97909.69;;;12.88
77223;BMP280;66218;48.928;9.140;2023-04-25T07:25:57;97917.16;;;12.73
77223;BMP280;66218;48.928;9.140;2023-04-25T07:28:22;97915.78;;;12.74
77223;BMP280;66218;48.928;9.140;2023-04-25T07:30:47;97914.44;;;12.77
77223;BMP280;66218;48.928;9.140;2023-04-25T07:33:13;97914.94;;;12.57
77223;BMP280;66218;48.928;9.140;2023-04-25T07:35:38;97920.19;;;12.35
77223;BMP280;66218;48.928;9.140;2023-04-25T07:38:03;97921.47;;;12.26
77223;BMP280;66218;48.928;9.140;2023-04-25T07:40:29;97924.91;;;12.24
77223;BMP280;66218;48.928;9.140;2023-04-25T07:42:55;97925.72;;;11.80
77223;BMP280;66218;48.928;9.140;2023-04-25T07:45:20;97933.19;;;11.72
77223;BMP280;66218;48.928;9.140;2023-04-25T07:47:45;97933.59;;;12.00
77223;BMP280;66218;48.928;9.140;2023-04-25T07:50:11;97933.19;;;12.22
77223;BMP280;66218;48.928;9.140;2023-04-25T07:52:36;97931.84;;;12.27
77223;BMP280;66218;48.928;9.140;2023-04-25T07:55:01;97932.75;;;12.44
77223;BMP280;66218;48.928;9.140;2023-04-25T07:57:27;97939.84;;;12.57
77223;BMP280;66218;48.928;9.140;2023-04-25T07:59:52;97939.06;;;12.53
77223;BMP280;66218;48.928;9.140;2023-04-25T08:02:17;97947.81;;;12.33
77223;BMP280;66218;48.928;9.140;2023-04-25T08:04:43;97941.66;;;11.84
77223;BMP280;66218;48.928;9.140;2023-04-25T08:07:08;97941.06;;;11.45
77223;BMP280;66218;48.928;9.140;2023-04-25T08:09:34;97955.66;;;11.10
77223;BMP280;66218;48.928;9.140;2023-04-25T08:12:01;97943.78;;;11.03
77223;BMP280;66218;48.928;9.140;2023-04-25T08:14:27;97950.06;;;11.08
77223;BMP280;66218;48.928;9.140;2023-04-25T08:16:54;97949.53;;;11.15
77223;BMP280;66218;48.928;9.140;2023-04-25T08:19:19;97951.13;;;11.28
77223;BMP280;66218;48.928;9.140;2023-04-25T08:21:47;97959.47;;;11.31
77223;BMP280;66218;48.928;9.140;2023-04-25T08:24:12;97962.31;;;11.35
77223;BMP280;66218;48.928;9.140;2023-04-25T08:26:37;97961.91;;;11.12
77223;BMP280;66218;48.928;9.140;2023-04-25T08:29:03;97970.84;;;10.73
77223;BMP280;66218;48.928;9.140;2023-04-25T08:31:29;97971.75;;;10.51
77223;BMP280;66218;48.928;9.140;2023-04-25T08:33:54;97972.78;;;10.34
77223;BMP280;66218;48.928;9.140;2023-04-25T08:36:20;97978.88;;;10.28
77223;BMP280;66218;48.928;9.140;2023-04-25T08:38:45;97977.41;;;10.25
77223;BMP280;66218;48.928;9.140;2023-04-25T08:41:11;97983.81;;;10.34
77223;BMP280;66218;48.928;9.140;2023-04-25T08:43:37;97984.81;;;10.49
77223;BMP280;66218;48.928;9.140;2023-04-25T08:46:02;97987.09;;;10.58
77223;BMP280;66218;48.928;9.140;2023-04-25T08:48:31;97996.16;;;10.65
77223;BMP280;66218;48.928;9.140;2023-04-25T08:50:57;97996.94;;;10.67
77223;BMP280;66218;48.928;9.140;2023-04-25T08:53:28;98005.28;;;10.69
77223;BMP280;66218;48.928;9.140;2023-04-25T08:55:54;97996.59;;;10.51
77223;BMP280;66218;48.928;9.140;2023-04-25T08:58:20;97999.09;;;10.39
77223;BMP280;66218;48.928;9.140;2023-04-25T09:00:47;97998.88;;;10.29
77223;BMP280;66218;48.928;9.140;2023-04-25T09:03:13;98001.47;;;10.21
77223;BMP280;66218;48.928;9.140;2023-04-25T09:05:39;98002.91;;;10.24
77223;BMP280;66218;48.928;9.140;2023-04-25T09:08:05;98003.34;;;10.44
77223;BMP280;66218;48.928;9.140;2023-04-25T09:10:31;98003.94;;;10.73
77223;BMP280;66218;48.928;9.140;2023-04-25T09:13:11;98013.84;;;11.22
77223;BMP280;66218;48.928;9.140;2023-04-25T09:15:48;98016.72;;;11.68
77223;BMP280;66218;48.928;9.140;2023-04-25T09:18:31;98021.41;;;12.04
77223;BMP280;66218;48.928;9.140;2023-04-25T09:21:11;98023.69;;;12.18
77223;BMP280;66218;48.928;9.140;2023-04-25T09:23:54;98027.84;;;12.19
77223;BMP280;66218;48.928;9.140;2023-04-25T09:26:20;98032.75;;;12.20
77223;BMP280;66218;48.928;9.140;2023-04-25T09:28:46;98035.53;;;12.22
77223;BMP280;66218;48.928;9.140;2023-04-25T09:31:24;98034.72;;;12.13
77223;BMP280;66218;48.928;9.140;2023-04-25T09:33:49;98046.31;;;12.04
77223;BMP280;66218;48.928;9.140;2023-04-25T09:36:15;98044.81;;;11.97
77223;BMP280;66218;48.928;9.140;2023-04-25T09:38:45;98041.72;;;11.76
77223;BMP280;66218;48.928;9.140;2023-04-25T09:41:11;98047.63;;;11.58
77223;BMP280;66218;48.928;9.140;2023-04-25T09:43:37;98046.78;;;11.48
77223;BMP280;66218;48.928;9.140;2023-04-25T09:46:04;98052.00;;;11.32
77223;BMP280;66218;48.928;9.140;2023-04-25T09:48:32;98054.50;;;11.17
77223;BMP280;66218;48.928;9.140;2023-04-25T09:51:13;98069.53;;;11.08
77223;BMP280;66218;48.928;9.140;2023-04-25T09:53:43;98070.00;;;10.98
77223;BMP280;66218;48.928;9.140;2023-04-25T09:56:11;98071.34;;;10.63
77223;BMP280;66218;48.928;9.140;2023-04-25T09:58:38;98079.50;;;10.27
77223;BMP280;66218;48.928;9.140;2023-04-25T10:01:06;98084.63;;;10.11
77223;BMP280;66218;48.928;9.140;2023-04-25T10:03:34;98079.47;;;9.97
77223;BMP280;66218;48.928;9.140;2023-04-25T10:06:02;98075.25;;;9.94
77223;BMP280;66218;48.928;9.140;2023-04-25T10:08:34;98084.06;;;9.89
77223;BMP280;66218;48.928;9.140;2023-04-25T10:11:01;98091.13;;;9.18
77223;BMP280;66218;48.928;9.140;2023-04-25T10:13:28;98096.16;;;8.78
77223;BMP280;66218;48.928;9.140;2023-04-25T10:15:55;98102.06;;;8.68
77223;BMP280;66218;48.928;9.140;2023-04-25T10:18:22;98104.47;;;8.56
77223;BMP280;66218;48.928;9.140;2023-04-25T10:20:47;98102.53;;;8.60
77223;BMP280;66218;48.928;9.140;2023-04-25T10:23:13;98109.63;;;8.24
77223;BMP280;66218;48.928;9.140;2023-04-25T10:25:41;98115.19;;;8.48
77223;BMP280;66218;48.928;9.140;2023-04-25T10:28:06;98107.94;;;8.58
77223;BMP280;66218;48.928;9.140;2023-04-25T10:30:32;98107.53;;;8.66
77223;BMP280;66218;48.928;9.140;2023-04-25T10:32:58;98106.69;;;8.61
77223;BMP280;66218;48.928;9.140;2023-04-25T10:35:28;98103.47;;;8.69
77223;BMP280;66218;48.928;9.140;2023-04-25T10:38:11;98096.41;;;9.10
77223;BMP280;66218;48.928;9.140;2023-04-25T10:40:37;98101.94;;;9.36
77223;BMP280;66218;48.928;9.140;2023-04-25T10:45:56;98099.75;;;9.82
77223;BMP280;66218;48.928;9.140;2023-04-25T10:48:26;98100.84;;;9.99
77223;BMP280;66218;48.928;9.140;2023-04-25T10:51:11;98099.91;;;10.16
77223;BMP280;66218;48.928;9.140;2023-04-25T10:53:36;98103.00;;;10.30
77223;BMP280;66218;48.928;9.140;2023-04-25T10:56:18;98102.09;;;10.52
77223;BMP280;66218;48.928;9.140;2023-04-25T10:58:45;98110.91;;;10.74
77223;BMP280;66218;48.928;9.140;2023-04-25T11:01:12;98115.84;;;10.80
77223;BMP280;66218;48.928;9.140;2023-04-25T11:03:40;98112.41;;;10.79
77223;BMP280;66218;48.928;9.140;2023-04-25T11:06:15;98120.69;;;10.79
77223;BMP280;66218;48.928;9.140;2023-04-25T11:08:50;98123.78;;;10.63
77223;BMP280;66218;48.928;9.140;2023-04-25T11:11:17;98119.53;;;10.60
77223;BMP280;66218;48.928;9.140;2023-04-25T11:13:43;98132.03;;;10.63
77223;BMP280;66218;48.928;9.140;2023-04-25T11:16:08;98128.09;;;10.42
77223;BMP280;66218;48.928;9.140;2023-04-25T11:18:33;98134.88;;;10.67
77223;BMP280;66218;48.928;9.140;2023-04-25T11:20:59;98140.84;;;10.56
77223;BMP280;66218;48.928;9.140;2023-04-25T11:23:25;98143.59;;;10.56
77223;BMP280;66218;48.928;9.140;2023-04-25T11:25:52;98144.13;;;10.78
77223;BMP280;66218;48.928;9.140;2023-04-25T11:28:21;98144.16;;;10.80
77223;BMP280;66218;48.928;9.140;2023-04-25T11:30:49;98150.56;;;10.89
77223;BMP280;66218;48.928;9.140;2023-04-25T11:33:16;98143.94;;;11.02
77223;BMP280;66218;48.928;9.140;2023-04-25T11:35:41;98149.38;;;11.32
77223;BMP280;66218;48.928;9.140;2023-04-25T11:38:06;98154.31;;;11.38
77223;BMP280;66218;48.928;9.140;2023-04-25T11:40:32;98156.19;;;11.29
77223;BMP280;66218;48.928;9.140;2023-04-25T11:43:00;98160.94;;;11.24
77223;BMP280;66218;48.928;9.140;2023-04-25T11:45:26;98167.34;;;11.33
77223;BMP280;66218;48.928;9.140;2023-04-25T11:47:51;98167.72;;;11.51
77223;BMP280;66218;48.928;9.140;2023-04-25T11:50:17;98175.44;;;11.59
77223;BMP280;66218;48.928;9.140;2023-04-25T11:52:44;98169.31;;;11.63
77223;BMP280;66218;48.928;9.140;2023-04-25T11:55:13;98174.53;;;11.84
77223;BMP280;66218;48.928;9.140;2023-04-25T11:57:39;98182.22;;;11.88
77223;BMP280;66218;48.928;9.140;2023-04-25T12:00:10;98177.13;;;11.74
77223;BMP280;66218;48.928;9.140;2023-04-25T12:02:37;98187.78;;;11.90
77223;BMP280;66218;48.928;9.140;2023-04-25T12:05:04;98185.72;;;11.91
77223;BMP280;66218;48.928;9.140;2023-04-25T12:07:31;98190.06;;;12.02
77223;BMP280;66218;48.928;9.140;2023-04-25T12:09:56;98188.97;;;12.19
77223;BMP280;66218;48.928;9.140;2023-04-25T12:12:27;98189.44;;;12.48
77223;BMP280;66218;48.928;9.140;2023-04-25T12:14:52;98178.28;;;12.86
77223;BMP280;66218;48.928;9.140;2023-04-25T12:17:17;98194.59;;;13.18
77223;BMP280;66218;48.928;9.140;2023-04-25T12:19:43;98208.28;;;13.58
77223;BMP280;66218;48.928;9.140;2023-04-25T12:22:23;98201.56;;;13.81
77223;BMP280;66218;48.928;9.140;2023-04-25T12:24:49;98203.38;;;14.25
77223;BMP280;66218;48.928;9.140;2023-04-25T12:27:16;98208.66;;;14.88
77223;BMP280;66218;48.928;9.140;2023-04-25T12:29:51;98210.94;;;15.28
77223;BMP280;66218;48.928;9.140;2023-04-25T12:32:17;98212.47;;;15.69
77223;BMP280;66218;48.928;9.140;2023-04-25T12:34:43;98213.19;;;15.94
77223;BMP280;66218;48.928;9.140;2023-04-25T12:37:08;98225.75;;;16.08
77223;BMP280;66218;48.928;9.140;2023-04-25T12:39:34;98219.50;;;16.27
77223;BMP280;66218;48.928;9.140;2023-04-25T12:41:59;98219.44;;;16.82
77223;BMP280;66218;48.928;9.140;2023-04-25T12:44:25;98226.97;;;17.24
77223;BMP280;66218;48.928;9.140;2023-04-25T12:46:50;98227.59;;;17.41
77223;BMP280;66218;48.928;9.140;2023-04-25T12:49:15;98234.59;;;17.32
77223;BMP280;66218;48.928;9.140;2023-04-25T12:51:41;98225.03;;;16.11
77223;BMP280;66218;48.928;9.140;2023-04-25T12:54:07;98224.34;;;16.07
77223;BMP280;66218;48.928;9.140;2023-04-25T12:56:33;98238.97;;;15.95
77223;BMP280;66218;48.928;9.140;2023-04-25T12:58:59;98236.59;;;15.16
77223;BMP280;66218;48.928;9.140;2023-04-25T13:01:24;98236.88;;;15.93
77223;BMP280;66218;48.928;9.140;2023-04-25T13:03:50;98229.25;;;16.41
77223;BMP280;66218;48.928;9.140;2023-04-25T13:06:16;98241.03;;;15.90
77223;BMP280;66218;48.928;9.140;2023-04-25T13:08:42;98237.53;;;15.86
77223;BMP280;66218;48.928;9.140;2023-04-25T13:11:08;98241.41;;;15.05
77223;BMP280;66218;48.928;9.140;2023-04-25T13:13:33;98232.41;;;15.11
77223;BMP280;66218;48.928;9.140;2023-04-25T13:16:00;98229.13;;;15.57
77223;BMP280;66218;48.928;9.140;2023-04-25T13:18:28;98235.44;;;15.78
77223;BMP280;66218;48.928;9.140;2023-04-25T13:20:54;98234.75;;;15.90
77223;BMP280;66218;48.928;9.140;2023-04-25T13:23:19;98240.38;;;16.10
77223;BMP280;66218;48.928;9.140;2023-04-25T13:25:45;98238.91;;;15.74
77223;BMP280;66218;48.928;9.140;2023-04-25T13:28:11;98235.47;;;16.11
77223;BMP280;66218;48.928;9.140;2023-04-25T13:30:36;98239.66;;;15.95
77223;BMP280;66218;48.928;9.140;2023-04-25T13:33:02;98238.25;;;15.92
77223;BMP280;66218;48.928;9.140;2023-04-25T13:35:29;98246.63;;;16.33
77223;BMP280;66218;48.928;9.140;2023-04-25T13:37:55;98243.88;;;16.21
77223;BMP280;66218;48.928;9.140;2023-04-25T13:40:20;98249.41;;;16.23
77223;BMP280;66218;48.928;9.140;2023-04-25T13:42:46;98244.53;;;15.91
77223;BMP280;66218;48.928;9.140;2023-04-25T13:45:11;98245.25;;;16.10
77223;BMP280;66218;48.928;9.140;2023-04-25T13:47:36;98241.56;;;15.32
77223;BMP280;66218;48.928;9.140;2023-04-25T13:50:03;98250.53;;;15.20
77223;BMP280;66218;48.928;9.140;2023-04-25T13:52:28;98251.38;;;15.53
77223;BMP280;66218;48.928;9.140;2023-04-25T13:54:54;98254.97;;;16.00
77223;BMP280;66218;48.928;9.140;2023-04-25T13:57:19;98258.50;;;16.31
77223;BMP280;66218;48.928;9.140;2023-04-25T13:59:45;98261.25;;;16.17
77223;BMP280;66218;48.928;9.140;2023-04-25T14:02:11;98251.50;;;16.69
77223;BMP280;66218;48.928;9.140;2023-04-25T14:04:37;98259.84;;;16.69
77223;BMP280;66218;48.928;9.140;2023-04-25T14:07:03;98264.72;;;16.54
77223;BMP280;66218;48.928;9.140;2023-04-25T14:09:28;98258.50;;;16.25
77223;BMP280;66218;48.928;9.140;2023-04-25T14:11:54;98251.47;;;16.02